sensor_id;sensor_type;location;lat;lon;timestamp;P1;durP1;ratioP1;P2;durP2;ratioP2
12962;SDS011;6546;49.882;8.666;2023-06-14T00:02:19;5.23;;;4.73;;
12962;SDS011;6546;49.882;8.666;2023-06-14T00:04:45;4.97;;;4.57;;
12962;SDS011;6546;49.882;8.666;2023-06-14T00:07:13;6.53;;;5.17;;
12962;SDS011;6546;49.882;8.666;2023-06-14T00:09:43;7.23;;;4.93;;
12962;SDS011;6546;49.882;8.666;2023-06-14T00:12:09;5.73;;;5.10;;
12962;SDS011;6546;49.882;8.666;2023-06-14T00:14:36;5.23;;;4.73;;
12962;SDS011;6546;49.882;8.666;2023-06-14T00:17:03;5.57;;;5.07;;
12962;SDS011;6546;49.882;8.666;2023-06-14T00:19:32;6.47;;;5.20;;
12962;SDS011;6546;49.882;8.666;2023-06-14T00:22:00;5.70;;;5.10;;
12962;SDS011;6546;49.882;8.666;2023-06-14T00:24:27;5.90;;;4.93;;
12962;SDS011;6546;49.882;8.666;2023-06-14T00:26:54;6.00;;;5.07;;
12962;SDS011;6546;49.882;8.666;2023-06-14T00:29:21;6.67;;;5.10;;
12962;SDS011;6546;49.882;8.666;2023-06-14T00:31:48;7.20;;;4.90;;
12962;SDS011;6546;49.882;8.666;2023-06-14T00:34:14;5.40;;;4.90;;
12962;SDS011;6546;49.882;8.666;2023-06-14T00:36:41;6.90;;;5.23;;
12962;SDS011;6546;49.882;8.666;2023-06-14T00:39:07;5.40;;;4.77;;
12962;SDS011;6546;49.882;8.666;2023-06-14T00:41:35;5.97;;;5.43;;
12962;SDS011;6546;49.882;8.666;2023-06-14T00:44:03;5.53;;;4.80;;
12962;SDS011;6546;49.882;8.666;2023-06-14T00:46:30;8.00;;;5.17;;
12962;SDS011;6546;49.882;8.666;2023-06-14T00:48:56;5.47;;;4.97;;
12962;SDS011;6546;49.882;8.666;2023-06-14T00:51:26;5.43;;;4.93;;
12962;SDS011;6546;49.882;8.666;2023-06-14T00:53:53;7.40;;;5.13;;
12962;SDS011;6546;49.882;8.666;2023-06-14T00:56:19;7.40;;;4.90;;
12962;SDS011;6546;49.882;8.666;2023-06-14T00:58:46;7.67;;;5.73;;
12962;SDS011;6546;49.882;8.666;2023-06-14T01:01:14;6.90;;;5.13;;
12962;SDS011;6546;49.882;8.666;2023-06-14T01:03:41;6.00;;;5.40;;
12962;SDS011;6546;49.882;8.666;2023-06-14T01:06:11;5.83;;;5.20;;
12962;SDS011;6546;49.882;8.666;2023-06-14T01:08:55;8.70;;;5.60;;
12962;SDS011;6546;49.882;8.666;2023-06-14T01:11:28;6.10;;;5.00;;
12962;SDS011;6546;49.882;8.666;2023-06-14T01:13:59;5.70;;;5.20;;
12962;SDS011;6546;49.882;8.666;2023-06-14T01:16:29;6.37;;;4.80;;
12962;SDS011;6546;49.882;8.666;2023-06-14T01:18:57;6.60;;;5.13;;
12962;SDS011;6546;49.882;8.666;2023-06-14T01:21:25;8.83;;;5.30;;
12962;SDS011;6546;49.882;8.666;2023-06-14T01:23:54;5.80;;;5.17;;
12962;SDS011;6546;49.882;8.666;2023-06-14T01:26:21;6.43;;;5.47;;
12962;SDS011;6546;49.882;8.666;2023-06-14T01:28:49;6.23;;;5.07;;
12962;SDS011;6546;49.882;8.666;2023-06-14T01:31:18;6.47;;;5.07;;
12962;SDS011;6546;49.882;8.666;2023-06-14T01:33:46;6.90;;;5.03;;
12962;SDS011;6546;49.882;8.666;2023-06-14T01:36:15;6.73;;;5.40;;
12962;SDS011;6546;49.882;8.666;2023-06-14T01:38:43;5.47;;;4.97;;
12962;SDS011;6546;49.882;8.666;2023-06-14T01:41:12;5.50;;;4.97;;
12962;SDS011;6546;49.882;8.666;2023-06-14T01:43:43;7.87;;;5.50;;
12962;SDS011;6546;49.882;8.666;2023-06-14T01:46:11;8.37;;;5.50;;
12962;SDS011;6546;49.882;8.666;2023-06-14T01:48:40;6.80;;;5.30;;
12962;SDS011;6546;49.882;8.666;2023-06-14T01:51:08;5.73;;;5.23;;
12962;SDS011;6546;49.882;8.666;2023-06-14T01:53:35;6.30;;;4.70;;
12962;SDS011;6546;49.882;8.666;2023-06-14T01:56:02;6.97;;;5.20;;
12962;SDS011;6546;49.882;8.666;2023-06-14T01:58:30;5.47;;;4.97;;
12962;SDS011;6546;49.882;8.666;2023-06-14T02:00:56;6.73;;;4.90;;
12962;SDS011;6546;49.882;8.666;2023-06-14T02:03:23;5.50;;;5.00;;
12962;SDS011;6546;49.882;8.666;2023-06-14T02:05:50;8.07;;;5.20;;
12962;SDS011;6546;49.882;8.666;2023-06-14T02:08:16;5.23;;;4.83;;
12962;SDS011;6546;49.882;8.666;2023-06-14T02:10:43;6.50;;;4.70;;
12962;SDS011;6546;49.882;8.666;2023-06-14T02:13:10;6.83;;;4.87;;
12962;SDS011;6546;49.882;8.666;2023-06-14T02:15:41;5.90;;;4.60;;
12962;SDS011;6546;49.882;8.666;2023-06-14T02:18:09;6.60;;;5.47;;
12962;SDS011;6546;49.882;8.666;2023-06-14T02:20:36;6.00;;;5.40;;
12962;SDS011;6546;49.882;8.666;2023-06-14T02:23:03;8.63;;;5.23;;
12962;SDS011;6546;49.882;8.666;2023-06-14T02:25:30;8.83;;;5.57;;
12962;SDS011;6546;49.882;8.666;2023-06-14T02:27:57;6.30;;;5.17;;
12962;SDS011;6546;49.882;8.666;2023-06-14T02:30:23;6.30;;;4.70;;
12962;SDS011;6546;49.882;8.666;2023-06-14T02:32:51;7.10;;;4.87;;
12962;SDS011;6546;49.882;8.666;2023-06-14T02:35:18;6.23;;;5.20;;
12962;SDS011;6546;49.882;8.666;2023-06-14T02:37:45;5.70;;;4.87;;
12962;SDS011;6546;49.882;8.666;2023-06-14T02:40:12;4.93;;;4.43;;
12962;SDS011;6546;49.882;8.666;2023-06-14T02:42:38;5.63;;;4.47;;
12962;SDS011;6546;49.882;8.666;2023-06-14T02:45:06;7.80;;;5.17;;
12962;SDS011;6546;49.882;8.666;2023-06-14T02:47:33;5.90;;;5.20;;
12962;SDS011;6546;49.882;8.666;2023-06-14T02:50:02;6.63;;;5.03;;
12962;SDS011;6546;49.882;8.666;2023-06-14T02:52:28;5.97;;;4.97;;
12962;SDS011;6546;49.882;8.666;2023-06-14T02:54:55;5.43;;;4.93;;
12962;SDS011;6546;49.882;8.666;2023-06-14T02:57:22;6.50;;;4.80;;
12962;SDS011;6546;49.882;8.666;2023-06-14T02:59:49;5.50;;;4.90;;
12962;SDS011;6546;49.882;8.666;2023-06-14T03:02:16;8.53;;;5.13;;
12962;SDS011;6546;49.882;8.666;2023-06-14T03:04:43;5.37;;;4.80;;
12962;SDS011;6546;49.882;8.666;2023-06-14T03:07:13;5.57;;;5.03;;
12962;SDS011;6546;49.882;8.666;2023-06-14T03:09:44;5.83;;;5.23;;
12962;SDS011;6546;49.882;8.666;2023-06-14T03:12:12;5.93;;;4.70;;
12962;SDS011;6546;49.882;8.666;2023-06-14T03:14:38;5.63;;;5.13;;
12962;SDS011;6546;49.882;8.666;2023-06-14T03:17:05;5.80;;;5.00;;
12962;SDS011;6546;49.882;8.666;2023-06-14T03:19:33;8.00;;;5.23;;
12962;SDS011;6546;49.882;8.666;2023-06-14T03:21:59;7.10;;;4.93;;
12962;SDS011;6546;49.882;8.666;2023-06-14T03:24:29;5.77;;;5.17;;
12962;SDS011;6546;49.882;8.666;2023-06-14T03:27:01;7.47;;;4.93;;
12962;SDS011;6546;49.882;8.666;2023-06-14T03:29:28;9.33;;;5.23;;
12962;SDS011;6546;49.882;8.666;2023-06-14T03:31:56;6.03;;;4.93;;
12962;SDS011;6546;49.882;8.666;2023-06-14T03:34:24;8.07;;;5.07;;
12962;SDS011;6546;49.882;8.666;2023-06-14T03:36:50;7.33;;;4.87;;
12962;SDS011;6546;49.882;8.666;2023-06-14T03:39:18;8.97;;;5.00;;
12962;SDS011;6546;49.882;8.666;2023-06-14T03:41:46;6.87;;;5.37;;
12962;SDS011;6546;49.882;8.666;2023-06-14T03:44:14;5.93;;;5.00;;
12962;SDS011;6546;49.882;8.666;2023-06-14T03:46:42;7.40;;;5.50;;
12962;SDS011;6546;49.882;8.666;2023-06-14T03:49:10;4.93;;;4.53;;
12962;SDS011;6546;49.882;8.666;2023-06-14T03:51:37;6.23;;;5.00;;
12962;SDS011;6546;49.882;8.666;2023-06-14T03:54:04;7.03;;;5.20;;
12962;SDS011;6546;49.882;8.666;2023-06-14T03:56:31;5.50;;;5.00;;
12962;SDS011;6546;49.882;8.666;2023-06-14T03:58:59;6.00;;;5.00;;
12962;SDS011;6546;49.882;8.666;2023-06-14T04:01:26;8.37;;;4.80;;
12962;SDS011;6546;49.882;8.666;2023-06-14T04:03:55;6.33;;;5.10;;
12962;SDS011;6546;49.882;8.666;2023-06-14T04:06:22;6.23;;;4.60;;
12962;SDS011;6546;49.882;8.666;2023-06-14T04:08:50;6.27;;;4.67;;
12962;SDS011;6546;49.882;8.666;2023-06-14T04:11:17;5.10;;;4.60;;
12962;SDS011;6546;49.882;8.666;2023-06-14T04:13:44;7.77;;;5.10;;
12962;SDS011;6546;49.882;8.666;2023-06-14T04:16:13;7.67;;;4.70;;
12962;SDS011;6546;49.882;8.666;2023-06-14T04:18:40;6.57;;;4.50;;
12962;SDS011;6546;49.882;8.666;2023-06-14T04:21:07;8.80;;;4.63;;
12962;SDS011;6546;49.882;8.666;2023-06-14T04:23:33;7.03;;;4.33;;
12962;SDS011;6546;49.882;8.666;2023-06-14T04:26:00;10.30;;;5.00;;
12962;SDS011;6546;49.882;8.666;2023-06-14T04:28:27;6.50;;;4.73;;
12962;SDS011;6546;49.882;8.666;2023-06-14T04:30:55;6.83;;;4.80;;
12962;SDS011;6546;49.882;8.666;2023-06-14T04:33:23;7.03;;;4.77;;
12962;SDS011;6546;49.882;8.666;2023-06-14T04:35:50;6.10;;;4.70;;
12962;SDS011;6546;49.882;8.666;2023-06-14T04:38:19;4.97;;;4.40;;
12962;SDS011;6546;49.882;8.666;2023-06-14T04:40:49;6.27;;;4.90;;
12962;SDS011;6546;49.882;8.666;2023-06-14T04:43:18;7.37;;;4.73;;
12962;SDS011;6546;49.882;8.666;2023-06-14T04:45:51;7.93;;;4.57;;
12962;SDS011;6546;49.882;8.666;2023-06-14T04:48:19;5.10;;;4.60;;
12962;SDS011;6546;49.882;8.666;2023-06-14T04:50:48;6.97;;;4.90;;
12962;SDS011;6546;49.882;8.666;2023-06-14T04:53:18;6.87;;;5.07;;
12962;SDS011;6546;49.882;8.666;2023-06-14T04:55:46;13.23;;;5.37;;
12962;SDS011;6546;49.882;8.666;2023-06-14T04:58:13;5.10;;;4.60;;
12962;SDS011;6546;49.882;8.666;2023-06-14T05:00:39;5.07;;;4.57;;
12962;SDS011;6546;49.882;8.666;2023-06-14T05:03:07;8.37;;;4.70;;
12962;SDS011;6546;49.882;8.666;2023-06-14T05:05:34;4.73;;;4.33;;
12962;SDS011;6546;49.882;8.666;2023-06-14T05:08:02;5.70;;;4.03;;
12962;SDS011;6546;49.882;8.666;2023-06-14T05:10:29;7.27;;;4.87;;
12962;SDS011;6546;49.882;8.666;2023-06-14T05:12:55;5.43;;;4.47;;
12962;SDS011;6546;49.882;8.666;2023-06-14T05:15:22;5.57;;;4.90;;
12962;SDS011;6546;49.882;8.666;2023-06-14T05:17:50;8.97;;;5.13;;
12962;SDS011;6546;49.882;8.666;2023-06-14T05:20:20;6.90;;;4.73;;
12962;SDS011;6546;49.882;8.666;2023-06-14T05:22:47;5.00;;;4.60;;
12962;SDS011;6546;49.882;8.666;2023-06-14T05:25:16;7.70;;;4.50;;
12962;SDS011;6546;49.882;8.666;2023-06-14T05:27:43;5.97;;;4.57;;
12962;SDS011;6546;49.882;8.666;2023-06-14T05:30:10;6.20;;;4.50;;
12962;SDS011;6546;49.882;8.666;2023-06-14T05:32:37;5.73;;;4.83;;
12962;SDS011;6546;49.882;8.666;2023-06-14T05:35:04;6.33;;;4.73;;
12962;SDS011;6546;49.882;8.666;2023-06-14T05:37:32;12.23;;;5.10;;
12962;SDS011;6546;49.882;8.666;2023-06-14T05:39:58;7.73;;;4.37;;
12962;SDS011;6546;49.882;8.666;2023-06-14T05:42:26;8.93;;;4.80;;
12962;SDS011;6546;49.882;8.666;2023-06-14T05:44:53;8.00;;;5.10;;
12962;SDS011;6546;49.882;8.666;2023-06-14T05:47:20;6.90;;;4.40;;
12962;SDS011;6546;49.882;8.666;2023-06-14T05:49:47;5.73;;;4.47;;
12962;SDS011;6546;49.882;8.666;2023-06-14T05:52:13;7.27;;;4.50;;
12962;SDS011;6546;49.882;8.666;2023-06-14T05:54:40;8.53;;;4.80;;
12962;SDS011;6546;49.882;8.666;2023-06-14T05:57:07;6.93;;;4.40;;
12962;SDS011;6546;49.882;8.666;2023-06-14T05:59:35;6.07;;;4.33;;
12962;SDS011;6546;49.882;8.666;2023-06-14T06:02:02;6.33;;;4.53;;
12962;SDS011;6546;49.882;8.666;2023-06-14T06:04:29;7.23;;;4.47;;
12962;SDS011;6546;49.882;8.666;2023-06-14T06:06:56;6.97;;;4.53;;
12962;SDS011;6546;49.882;8.666;2023-06-14T06:09:22;9.27;;;4.30;;
12962;SDS011;6546;49.882;8.666;2023-06-14T06:11:49;8.37;;;4.53;;
12962;SDS011;6546;49.882;8.666;2023-06-14T06:14:16;8.70;;;4.27;;
12962;SDS011;6546;49.882;8.666;2023-06-14T06:16:44;6.57;;;4.20;;
12962;SDS011;6546;49.882;8.666;2023-06-14T06:19:10;10.45;;;4.88;;
12962;SDS011;6546;49.882;8.666;2023-06-14T06:21:37;6.43;;;4.20;;
12962;SDS011;6546;49.882;8.666;2023-06-14T06:24:04;5.93;;;3.58;;
12962;SDS011;6546;49.882;8.666;2023-06-14T06:26:31;6.20;;;4.05;;
12962;SDS011;6546;49.882;8.666;2023-06-14T06:28:58;4.47;;;4.07;;
12962;SDS011;6546;49.882;8.666;2023-06-14T06:31:25;6.00;;;3.67;;
12962;SDS011;6546;49.882;8.666;2023-06-14T06:33:54;6.63;;;3.80;;
12962;SDS011;6546;49.882;8.666;2023-06-14T06:36:21;5.35;;;3.75;;
12962;SDS011;6546;49.882;8.666;2023-06-14T06:38:47;5.25;;;3.70;;
12962;SDS011;6546;49.882;8.666;2023-06-14T06:41:14;7.20;;;4.05;;
12962;SDS011;6546;49.882;8.666;2023-06-14T06:43:41;5.32;;;3.75;;
12962;SDS011;6546;49.882;8.666;2023-06-14T06:46:07;5.90;;;4.00;;
12962;SDS011;6546;49.882;8.666;2023-06-14T06:48:34;4.90;;;3.80;;
12962;SDS011;6546;49.882;8.666;2023-06-14T06:51:02;8.80;;;3.92;;
12962;SDS011;6546;49.882;8.666;2023-06-14T06:53:30;9.98;;;4.22;;
12962;SDS011;6546;49.882;8.666;2023-06-14T06:55:57;5.93;;;3.72;;
12962;SDS011;6546;49.882;8.666;2023-06-14T06:58:24;4.40;;;3.95;;
12962;SDS011;6546;49.882;8.666;2023-06-14T07:00:50;4.55;;;3.53;;
12962;SDS011;6546;49.882;8.666;2023-06-14T07:03:17;10.00;;;4.05;;
12962;SDS011;6546;49.882;8.666;2023-06-14T07:05:44;4.20;;;3.78;;
12962;SDS011;6546;49.882;8.666;2023-06-14T07:08:12;6.22;;;3.80;;
12962;SDS011;6546;49.882;8.666;2023-06-14T07:10:39;6.20;;;4.18;;
12962;SDS011;6546;49.882;8.666;2023-06-14T07:13:05;4.93;;;3.95;;
12962;SDS011;6546;49.882;8.666;2023-06-14T07:15:32;7.68;;;4.25;;
12962;SDS011;6546;49.882;8.666;2023-06-14T07:17:59;7.97;;;3.92;;
12962;SDS011;6546;49.882;8.666;2023-06-14T07:20:25;6.55;;;3.85;;
12962;SDS011;6546;49.882;8.666;2023-06-14T07:22:52;5.75;;;4.20;;
12962;SDS011;6546;49.882;8.666;2023-06-14T07:25:20;5.43;;;3.78;;
12962;SDS011;6546;49.882;8.666;2023-06-14T07:27:47;5.13;;;4.00;;
12962;SDS011;6546;49.882;8.666;2023-06-14T07:30:14;5.07;;;4.25;;
12962;SDS011;6546;49.882;8.666;2023-06-14T07:32:40;7.10;;;3.75;;
12962;SDS011;6546;49.882;8.666;2023-06-14T07:35:07;8.27;;;3.70;;
12962;SDS011;6546;49.882;8.666;2023-06-14T07:37:34;6.82;;;4.18;;
12962;SDS011;6546;49.882;8.666;2023-06-14T07:40:01;6.85;;;4.05;;
12962;SDS011;6546;49.882;8.666;2023-06-14T07:42:33;4.43;;;4.03;;
12962;SDS011;6546;49.882;8.666;2023-06-14T07:45:01;6.07;;;4.28;;
12962;SDS011;6546;49.882;8.666;2023-06-14T07:47:27;4.88;;;4.10;;
12962;SDS011;6546;49.882;8.666;2023-06-14T07:49:54;9.00;;;4.63;;
12962;SDS011;6546;49.882;8.666;2023-06-14T07:52:21;5.50;;;3.92;;
12962;SDS011;6546;49.882;8.666;2023-06-14T07:54:47;5.57;;;3.38;;
12962;SDS011;6546;49.882;8.666;2023-06-14T07:57:14;6.75;;;4.00;;
12962;SDS011;6546;49.882;8.666;2023-06-14T07:59:42;4.05;;;3.60;;
12962;SDS011;6546;49.882;8.666;2023-06-14T08:02:09;6.28;;;3.45;;
12962;SDS011;6546;49.882;8.666;2023-06-14T08:04:35;6.00;;;4.18;;
12962;SDS011;6546;49.882;8.666;2023-06-14T08:07:03;9.35;;;4.00;;
12962;SDS011;6546;49.882;8.666;2023-06-14T08:09:30;10.82;;;3.80;;
12962;SDS011;6546;49.882;8.666;2023-06-14T08:11:57;9.55;;;4.07;;
12962;SDS011;6546;49.882;8.666;2023-06-14T08:14:23;6.35;;;3.80;;
12962;SDS011;6546;49.882;8.666;2023-06-14T08:16:51;6.63;;;3.35;;
12962;SDS011;6546;49.882;8.666;2023-06-14T08:19:18;6.43;;;3.90;;
12962;SDS011;6546;49.882;8.666;2023-06-14T08:21:45;5.78;;;3.97;;
12962;SDS011;6546;49.882;8.666;2023-06-14T08:24:12;10.05;;;3.88;;
12962;SDS011;6546;49.882;8.666;2023-06-14T08:26:39;6.35;;;4.20;;
12962;SDS011;6546;49.882;8.666;2023-06-14T08:29:06;7.45;;;4.03;;
12962;SDS011;6546;49.882;8.666;2023-06-14T08:31:33;5.90;;;3.87;;
12962;SDS011;6546;49.882;8.666;2023-06-14T08:34:01;8.90;;;4.05;;
12962;SDS011;6546;49.882;8.666;2023-06-14T08:36:28;8.23;;;4.10;;
12962;SDS011;6546;49.882;8.666;2023-06-14T08:38:55;8.97;;;4.20;;
12962;SDS011;6546;49.882;8.666;2023-06-14T08:41:22;5.47;;;3.20;;
12962;SDS011;6546;49.882;8.666;2023-06-14T08:43:49;7.30;;;3.90;;
12962;SDS011;6546;49.882;8.666;2023-06-14T08:46:17;6.03;;;3.20;;
12962;SDS011;6546;49.882;8.666;2023-06-14T08:48:46;4.07;;;2.95;;
12962;SDS011;6546;49.882;8.666;2023-06-14T08:51:15;5.00;;;3.03;;
12962;SDS011;6546;49.882;8.666;2023-06-14T08:53:48;5.72;;;2.85;;
12962;SDS011;6546;49.882;8.666;2023-06-14T08:56:18;4.70;;;2.72;;
12962;SDS011;6546;49.882;8.666;2023-06-14T08:58:45;5.00;;;2.70;;
12962;SDS011;6546;49.882;8.666;2023-06-14T09:01:13;6.43;;;2.67;;
12962;SDS011;6546;49.882;8.666;2023-06-14T09:03:42;3.35;;;2.65;;
12962;SDS011;6546;49.882;8.666;2023-06-14T09:06:09;3.42;;;2.47;;
12962;SDS011;6546;49.882;8.666;2023-06-14T09:08:40;3.05;;;2.75;;
12962;SDS011;6546;49.882;8.666;2023-06-14T09:11:09;2.95;;;2.70;;
12962;SDS011;6546;49.882;8.666;2023-06-14T09:13:38;4.80;;;2.77;;
12962;SDS011;6546;49.882;8.666;2023-06-14T09:16:05;3.85;;;2.70;;
12962;SDS011;6546;49.882;8.666;2023-06-14T09:18:35;3.45;;;2.80;;
12962;SDS011;6546;49.882;8.666;2023-06-14T09:21:02;4.40;;;2.45;;
12962;SDS011;6546;49.882;8.666;2023-06-14T09:23:29;3.92;;;2.70;;
12962;SDS011;6546;49.882;8.666;2023-06-14T09:26:01;4.28;;;2.92;;
12962;SDS011;6546;49.882;8.666;2023-06-14T09:28:27;2.80;;;2.57;;
12962;SDS011;6546;49.882;8.666;2023-06-14T09:30:54;3.20;;;2.90;;
12962;SDS011;6546;49.882;8.666;2023-06-14T09:33:21;2.67;;;2.40;;
12962;SDS011;6546;49.882;8.666;2023-06-14T09:35:50;4.63;;;2.83;;
12962;SDS011;6546;49.882;8.666;2023-06-14T09:38:18;3.95;;;2.53;;
12962;SDS011;6546;49.882;8.666;2023-06-14T09:40:45;2.95;;;2.55;;
12962;SDS011;6546;49.882;8.666;2023-06-14T09:43:13;4.37;;;2.60;;
12962;SDS011;6546;49.882;8.666;2023-06-14T09:45:40;6.18;;;2.60;;
12962;SDS011;6546;49.882;8.666;2023-06-14T09:48:10;3.23;;;2.63;;
12962;SDS011;6546;49.882;8.666;2023-06-14T09:50:42;3.30;;;2.47;;
12962;SDS011;6546;49.882;8.666;2023-06-14T09:53:11;2.63;;;2.40;;
12962;SDS011;6546;49.882;8.666;2023-06-14T09:55:38;3.73;;;2.50;;
12962;SDS011;6546;49.882;8.666;2023-06-14T09:58:07;4.25;;;2.17;;
12962;SDS011;6546;49.882;8.666;2023-06-14T10:00:37;2.35;;;2.15;;
12962;SDS011;6546;49.882;8.666;2023-06-14T10:03:06;2.53;;;2.17;;
12962;SDS011;6546;49.882;8.666;2023-06-14T10:05:38;3.25;;;2.42;;
12962;SDS011;6546;49.882;8.666;2023-06-14T10:08:08;4.15;;;1.90;;
12962;SDS011;6546;49.882;8.666;2023-06-14T10:10:38;3.38;;;2.78;;
12962;SDS011;6546;49.882;8.666;2023-06-14T10:13:05;2.40;;;2.20;;
12962;SDS011;6546;49.882;8.666;2023-06-14T10:15:34;5.65;;;2.50;;
12962;SDS011;6546;49.882;8.666;2023-06-14T10:18:09;2.72;;;2.35;;
12962;SDS011;6546;49.882;8.666;2023-06-14T10:20:48;4.95;;;2.55;;
12962;SDS011;6546;49.882;8.666;2023-06-14T10:23:22;3.27;;;2.27;;
12962;SDS011;6546;49.882;8.666;2023-06-14T10:25:51;3.92;;;2.30;;
12962;SDS011;6546;49.882;8.666;2023-06-14T10:28:21;4.50;;;2.10;;
12962;SDS011;6546;49.882;8.666;2023-06-14T10:31:03;3.80;;;2.30;;
12962;SDS011;6546;49.882;8.666;2023-06-14T10:33:34;2.45;;;2.25;;
12962;SDS011;6546;49.882;8.666;2023-06-14T10:36:08;5.35;;;2.35;;
12962;SDS011;6546;49.882;8.666;2023-06-14T10:38:36;7.22;;;2.00;;
12962;SDS011;6546;49.882;8.666;2023-06-14T10:41:04;2.40;;;2.08;;
12962;SDS011;6546;49.882;8.666;2023-06-14T10:43:32;2.35;;;2.15;;
12962;SDS011;6546;49.882;8.666;2023-06-14T10:46:16;2.47;;;2.28;;
12962;SDS011;6546;49.882;8.666;2023-06-14T10:48:46;4.30;;;2.30;;
12962;SDS011;6546;49.882;8.666;2023-06-14T10:51:17;3.55;;;2.30;;
12962;SDS011;6546;49.882;8.666;2023-06-14T10:53:47;3.92;;;2.22;;
12962;SDS011;6546;49.882;8.666;2023-06-14T10:56:26;3.80;;;2.15;;
12962;SDS011;6546;49.882;8.666;2023-06-14T10:58:54;2.67;;;2.20;;
12962;SDS011;6546;49.882;8.666;2023-06-14T11:01:28;3.53;;;2.40;;
12962;SDS011;6546;49.882;8.666;2023-06-14T11:04:07;3.00;;;2.22;;
12962;SDS011;6546;49.882;8.666;2023-06-14T11:06:42;3.67;;;2.20;;
12962;SDS011;6546;49.882;8.666;2023-06-14T11:09:20;3.65;;;2.22;;
12962;SDS011;6546;49.882;8.666;2023-06-14T11:12:03;2.42;;;2.13;;
12962;SDS011;6546;49.882;8.666;2023-06-14T11:14:32;3.42;;;2.05;;
12962;SDS011;6546;49.882;8.666;2023-06-14T11:17:00;4.20;;;2.67;;
12962;SDS011;6546;49.882;8.666;2023-06-14T11:19:27;2.78;;;2.13;;
12962;SDS011;6546;49.882;8.666;2023-06-14T11:21:54;2.95;;;2.10;;
12962;SDS011;6546;49.882;8.666;2023-06-14T11:24:21;3.75;;;2.30;;
12962;SDS011;6546;49.882;8.666;2023-06-14T11:26:48;3.63;;;2.25;;
12962;SDS011;6546;49.882;8.666;2023-06-14T11:29:15;2.83;;;2.40;;
12962;SDS011;6546;49.882;8.666;2023-06-14T11:31:42;4.95;;;2.38;;
12962;SDS011;6546;49.882;8.666;2023-06-14T11:34:12;3.25;;;2.30;;
12962;SDS011;6546;49.882;8.666;2023-06-14T11:36:38;2.63;;;2.40;;
12962;SDS011;6546;49.882;8.666;2023-06-14T11:39:06;3.42;;;2.60;;
12962;SDS011;6546;49.882;8.666;2023-06-14T11:41:35;4.35;;;2.47;;
12962;SDS011;6546;49.882;8.666;2023-06-14T11:44:03;3.08;;;2.70;;
12962;SDS011;6546;49.882;8.666;2023-06-14T11:46:30;3.80;;;2.60;;
12962;SDS011;6546;49.882;8.666;2023-06-14T11:48:57;2.70;;;2.50;;
12962;SDS011;6546;49.882;8.666;2023-06-14T11:51:29;4.30;;;2.55;;
12962;SDS011;6546;49.882;8.666;2023-06-14T11:53:56;6.78;;;2.88;;
12962;SDS011;6546;49.882;8.666;2023-06-14T11:56:23;4.28;;;2.70;;
12962;SDS011;6546;49.882;8.666;2023-06-14T11:58:50;3.60;;;2.60;;
12962;SDS011;6546;49.882;8.666;2023-06-14T12:01:17;5.10;;;2.63;;
12962;SDS011;6546;49.882;8.666;2023-06-14T12:03:47;4.88;;;2.90;;
12962;SDS011;6546;49.882;8.666;2023-06-14T12:06:15;3.40;;;2.60;;
12962;SDS011;6546;49.882;8.666;2023-06-14T12:08:44;3.53;;;2.60;;
12962;SDS011;6546;49.882;8.666;2023-06-14T12:11:14;2.83;;;2.60;;
12962;SDS011;6546;49.882;8.666;2023-06-14T12:13:42;5.57;;;2.80;;
12962;SDS011;6546;49.882;8.666;2023-06-14T12:16:09;2.97;;;2.78;;
12962;SDS011;6546;49.882;8.666;2023-06-14T12:18:37;3.33;;;2.70;;
12962;SDS011;6546;49.882;8.666;2023-06-14T12:21:06;4.07;;;2.90;;
12962;SDS011;6546;49.882;8.666;2023-06-14T12:23:43;8.10;;;3.13;;
12962;SDS011;6546;49.882;8.666;2023-06-14T12:26:12;5.50;;;2.75;;
12962;SDS011;6546;49.882;8.666;2023-06-14T12:28:40;3.72;;;2.90;;
12962;SDS011;6546;49.882;8.666;2023-06-14T12:31:08;4.57;;;3.03;;
12962;SDS011;6546;49.882;8.666;2023-06-14T12:33:35;4.38;;;3.30;;
12962;SDS011;6546;49.882;8.666;2023-06-14T12:36:03;3.90;;;3.20;;
12962;SDS011;6546;49.882;8.666;2023-06-14T12:38:30;4.27;;;2.80;;
12962;SDS011;6546;49.882;8.666;2023-06-14T12:40:58;3.10;;;2.60;;
12962;SDS011;6546;49.882;8.666;2023-06-14T12:43:25;4.10;;;3.10;;
12962;SDS011;6546;49.882;8.666;2023-06-14T12:45:51;4.57;;;3.00;;
12962;SDS011;6546;49.882;8.666;2023-06-14T12:48:18;3.20;;;2.88;;
12962;SDS011;6546;49.882;8.666;2023-06-14T12:50:45;3.20;;;2.65;;
12962;SDS011;6546;49.882;8.666;2023-06-14T12:53:12;3.53;;;3.00;;
12962;SDS011;6546;49.882;8.666;2023-06-14T12:55:39;6.57;;;3.03;;
12962;SDS011;6546;49.882;8.666;2023-06-14T12:58:07;5.88;;;2.80;;
12962;SDS011;6546;49.882;8.666;2023-06-14T13:00:33;6.85;;;2.67;;
12962;SDS011;6546;49.882;8.666;2023-06-14T13:03:01;3.47;;;2.97;;
12962;SDS011;6546;49.882;8.666;2023-06-14T13:05:28;4.38;;;2.88;;
12962;SDS011;6546;49.882;8.666;2023-06-14T13:07:56;4.03;;;2.60;;
12962;SDS011;6546;49.882;8.666;2023-06-14T13:10:22;4.05;;;2.58;;
12962;SDS011;6546;49.882;8.666;2023-06-14T13:12:49;2.83;;;2.60;;
12962;SDS011;6546;49.882;8.666;2023-06-14T13:15:17;3.78;;;2.80;;
12962;SDS011;6546;49.882;8.666;2023-06-14T13:17:44;4.47;;;2.50;;
12962;SDS011;6546;49.882;8.666;2023-06-14T13:20:13;4.25;;;3.20;;
12962;SDS011;6546;49.882;8.666;2023-06-14T13:22:41;4.15;;;2.97;;
12962;SDS011;6546;49.882;8.666;2023-06-14T13:25:08;3.80;;;2.88;;
12962;SDS011;6546;49.882;8.666;2023-06-14T13:27:35;3.28;;;2.83;;
12962;SDS011;6546;49.882;8.666;2023-06-14T13:30:02;6.00;;;2.85;;
12962;SDS011;6546;49.882;8.666;2023-06-14T13:32:32;6.65;;;2.95;;
12962;SDS011;6546;49.882;8.666;2023-06-14T13:34:58;2.65;;;2.42;;
12962;SDS011;6546;49.882;8.666;2023-06-14T13:37:25;3.75;;;2.60;;
12962;SDS011;6546;49.882;8.666;2023-06-14T13:39:51;3.53;;;2.83;;
12962;SDS011;6546;49.882;8.666;2023-06-14T13:42:18;5.25;;;2.65;;
12962;SDS011;6546;49.882;8.666;2023-06-14T13:44:45;2.90;;;2.63;;
12962;SDS011;6546;49.882;8.666;2023-06-14T13:47:11;6.40;;;2.45;;
12962;SDS011;6546;49.882;8.666;2023-06-14T13:49:39;3.55;;;2.97;;
12962;SDS011;6546;49.882;8.666;2023-06-14T13:52:06;3.80;;;2.60;;
12962;SDS011;6546;49.882;8.666;2023-06-14T13:54:33;3.20;;;2.70;;
12962;SDS011;6546;49.882;8.666;2023-06-14T13:57:01;3.05;;;2.72;;
12962;SDS011;6546;49.882;8.666;2023-06-14T13:59:27;3.65;;;2.80;;
12962;SDS011;6546;49.882;8.666;2023-06-14T14:01:54;7.60;;;3.45;;
12962;SDS011;6546;49.882;8.666;2023-06-14T14:04:20;3.40;;;2.70;;
12962;SDS011;6546;49.882;8.666;2023-06-14T14:06:48;3.03;;;2.73;;
12962;SDS011;6546;49.882;8.666;2023-06-14T14:09:16;5.53;;;2.78;;
12962;SDS011;6546;49.882;8.666;2023-06-14T14:11:43;3.13;;;2.50;;
12962;SDS011;6546;49.882;8.666;2023-06-14T14:14:10;3.10;;;2.50;;
12962;SDS011;6546;49.882;8.666;2023-06-14T14:16:36;5.25;;;2.63;;
12962;SDS011;6546;49.882;8.666;2023-06-14T14:19:03;4.23;;;2.73;;
12962;SDS011;6546;49.882;8.666;2023-06-14T14:21:30;6.95;;;2.65;;
12962;SDS011;6546;49.882;8.666;2023-06-14T14:23:58;3.00;;;2.63;;
12962;SDS011;6546;49.882;8.666;2023-06-14T14:26:25;18.67;;;4.55;;
12962;SDS011;6546;49.882;8.666;2023-06-14T14:28:52;4.07;;;2.67;;
12962;SDS011;6546;49.882;8.666;2023-06-14T14:31:19;4.82;;;2.40;;
12962;SDS011;6546;49.882;8.666;2023-06-14T14:33:45;2.70;;;2.50;;
12962;SDS011;6546;49.882;8.666;2023-06-14T14:36:12;3.72;;;2.60;;
12962;SDS011;6546;49.882;8.666;2023-06-14T14:38:39;4.60;;;2.40;;
12962;SDS011;6546;49.882;8.666;2023-06-14T14:41:07;3.15;;;2.50;;
12962;SDS011;6546;49.882;8.666;2023-06-14T14:43:34;2.88;;;2.50;;
12962;SDS011;6546;49.882;8.666;2023-06-14T14:46:00;5.20;;;2.60;;
12962;SDS011;6546;49.882;8.666;2023-06-14T14:48:27;2.42;;;2.22;;
12962;SDS011;6546;49.882;8.666;2023-06-14T14:50:54;2.67;;;2.47;;
12962;SDS011;6546;49.882;8.666;2023-06-14T14:53:21;2.85;;;2.58;;
12962;SDS011;6546;49.882;8.666;2023-06-14T14:55:47;2.40;;;2.20;;
12962;SDS011;6546;49.882;8.666;2023-06-14T14:58:15;2.97;;;2.53;;
12962;SDS011;6546;49.882;8.666;2023-06-14T15:00:43;3.65;;;2.58;;
12962;SDS011;6546;49.882;8.666;2023-06-14T15:03:10;3.05;;;2.50;;
12962;SDS011;6546;49.882;8.666;2023-06-14T15:05:36;3.92;;;2.60;;